createdAt,value
2023-05-22T00:00:09.498Z,95979.56
2023-05-22T00:02:55.312Z,95979.56
2023-05-22T00:05:41.293Z,95976.69
2023-05-22T00:08:29.588Z,95971.81
2023-05-22T00:11:15.148Z,95980.38
2023-05-22T00:14:00.530Z,95975.88
2023-05-22T00:16:48.526Z,95971.81
2023-05-22T00:19:35.136Z,95974.25
2023-05-22T00:22:21.072Z,95969.56
2023-05-22T00:25:07.321Z,95971.00
2023-05-22T00:27:52.524Z,95976.28
2023-05-22T00:30:38.300Z,95966.06
2023-05-22T00:33:23.901Z,95965.28
2023-05-22T00:36:09.533Z,95977.88
2023-05-22T00:38:54.769Z,95963.63
2023-05-22T00:41:40.441Z,95971.13
2023-05-22T00:44:25.754Z,95961.97
2023-05-22T00:47:10.951Z,95968.69
2023-05-22T00:49:56.344Z,95966.44
2023-05-22T00:52:45.582Z,95956.22
2023-05-22T00:55:30.878Z,95965.19
2023-05-22T00:58:21.879Z,95965.59
2023-05-22T01:01:11.440Z,95957.03
2023-05-22T01:03:57.445Z,95968.03
2023-05-22T01:06:43.025Z,95961.47
2023-05-22T01:09:29.414Z,95969.59
2023-05-22T01:12:24.121Z,95960.63
2023-05-22T01:15:21.986Z,95960.22
2023-05-22T01:18:19.883Z,95967.50
2023-05-22T01:21:14.280Z,95969.31
2023-05-22T01:24:11.685Z,95968.09
2023-05-22T01:27:06.075Z,95969.28
2023-05-22T01:30:04.207Z,95971.03
2023-05-22T01:32:50.292Z,95966.34
2023-05-22T01:35:39.720Z,95969.38
2023-05-22T01:38:25.468Z,95965.28
2023-05-22T01:41:11.171Z,95967.91
2023-05-22T01:43:56.648Z,95975.41
2023-05-22T01:46:41.942Z,95971.34
2023-05-22T01:49:28.523Z,95970.91
2023-05-22T01:52:22.783Z,95970.47
2023-05-22T01:55:22.783Z,95971.84
2023-05-22T01:58:24.708Z,95975.91
2023-05-22T02:01:12.099Z,95970.41
2023-05-22T02:03:58.182Z,95968.13
2023-05-22T02:06:44.578Z,95972.19
2023-05-22T02:09:33.556Z,95965.44
2023-05-22T02:12:21.220Z,95963.00
2023-05-22T02:15:08.677Z,95960.75
2023-05-22T02:17:54.145Z,95955.25
2023-05-22T02:20:39.648Z,95959.25
2023-05-22T02:23:26.191Z,95953.75
2023-05-22T02:26:11.554Z,95956.78
2023-05-22T02:28:56.833Z,95960.41
2023-05-22T02:31:42.265Z,95954.97
2023-05-22T02:34:27.691Z,95958.81
2023-05-22T02:37:15.801Z,95957.75
2023-05-22T02:40:01.115Z,95957.50
2023-05-22T02:42:46.260Z,95954.63
2023-05-22T02:45:32.665Z,95955.66
2023-05-22T02:48:18.156Z,95953.78
2023-05-22T02:51:03.627Z,95950.91
2023-05-22T02:53:55.660Z,95958.53
2023-05-22T02:56:47.703Z,95951.84
2023-05-22T02:59:33.114Z,95952.03
2023-05-22T03:02:28.465Z,95948.38
2023-05-22T03:05:17.656Z,95953.28
2023-05-22T03:08:03.301Z,95942.38
2023-05-22T03:10:48.753Z,95950.28
2023-05-22T03:13:34.061Z,95945.00
2023-05-22T03:16:19.880Z,95947.06
2023-05-22T03:19:13.122Z,95947.66
2023-05-22T03:21:58.290Z,95942.72
2023-05-22T03:24:43.585Z,95946.38
2023-05-22T03:27:28.783Z,95941.50
2023-05-22T03:30:15.039Z,95932.94
2023-05-22T03:33:00.349Z,95940.88
2023-05-22T03:35:45.641Z,95945.13
2023-05-22T03:38:30.833Z,95939.50
2023-05-22T03:41:16.144Z,95943.34
2023-05-22T03:44:03.849Z,95940.53
2023-05-22T03:46:48.775Z,95935.69
2023-05-22T03:49:34.034Z,95939.59
2023-05-22T03:52:19.311Z,95938.38
2023-05-22T03:55:05.630Z,95933.19
2023-05-22T03:57:50.899Z,95937.88
2023-05-22T04:00:38.424Z,95933.66
2023-05-22T04:03:24.753Z,95932.44
2023-05-22T04:06:10.818Z,95930.88
2023-05-22T04:08:55.772Z,95931.09
2023-05-22T04:11:42.305Z,95929.31
2023-05-22T04:14:28.188Z,95924.91
2023-05-22T04:17:13.314Z,95927.56
2023-05-22T04:19:58.869Z,95926.97
2023-05-22T04:22:45.917Z,95923.59
2023-05-22T04:25:31.697Z,95924.03
2023-05-22T04:28:22.535Z,95928.53
2023-05-22T04:31:07.692Z,95920.44
2023-05-22T04:33:54.632Z,95917.88
2023-05-22T04:36:40.058Z,95911.59
2023-05-22T04:39:26.346Z,95910.81
2023-05-22T04:42:16.116Z,95912.25
2023-05-22T04:45:01.519Z,95908.81
2023-05-22T04:47:46.874Z,95903.34
2023-05-22T04:50:32.697Z,95901.09
2023-05-22T04:53:18.285Z,95901.31
2023-05-22T04:56:03.618Z,95893.19
2023-05-22T04:58:54.004Z,95895.66
2023-05-22T05:01:39.489Z,95900.16
2023-05-22T05:04:27.713Z,95889.16
2023-05-22T05:07:13.554Z,95900.16
2023-05-22T05:09:58.641Z,95889.19
2023-05-22T05:12:43.907Z,95894.50
2023-05-22T05:15:29.723Z,95892.03
2023-05-22T05:18:15.166Z,95890.00
2023-05-22T05:21:00.707Z,95887.75
2023-05-22T05:23:46.117Z,95891.63
2023-05-22T05:26:31.715Z,95894.44
2023-05-22T05:29:17.107Z,95887.91
2023-05-22T05:32:02.138Z,95885.03
2023-05-22T05:34:47.295Z,95892.13
2023-05-22T05:37:32.792Z,95888.22
2023-05-22T05:40:18.061Z,95886.16
2023-05-22T05:43:03.637Z,95876.31
2023-05-22T05:45:48.828Z,95889.72
2023-05-22T05:48:34.118Z,95878.28
2023-05-22T05:51:20.937Z,95875.56
2023-05-22T05:54:06.230Z,95871.63
2023-05-22T05:56:51.719Z,95877.50
2023-05-22T05:59:36.972Z,95868.66
2023-05-22T06:02:22.321Z,95865.78
2023-05-22T06:05:09.224Z,95865.50
2023-05-22T06:07:54.607Z,95860.53
2023-05-22T06:10:40.191Z,95859.81
2023-05-22T06:13:25.622Z,95848.34
2023-05-22T06:16:11.004Z,95855.47
2023-05-22T06:18:58.986Z,95849.16
2023-05-22T06:21:44.336Z,95844.53
2023-05-22T06:24:29.683Z,95848.44
2023-05-22T06:27:15.098Z,95848.31
2023-05-22T06:30:03.735Z,95853.81
2023-05-22T06:32:50.040Z,95849.72
2023-05-22T06:35:35.160Z,95839.03
2023-05-22T06:38:20.735Z,95845.06
2023-05-22T06:41:06.485Z,95841.19
2023-05-22T06:43:51.866Z,95832.94
2023-05-22T06:46:37.178Z,95824.63
2023-05-22T06:49:22.384Z,95831.75
2023-05-22T06:52:07.868Z,95835.94
2023-05-22T06:54:54.001Z,95832.22
2023-05-22T06:57:39.723Z,95829.50
2023-05-22T07:00:25.414Z,95820.25
2023-05-22T07:03:11.904Z,95827.41
2023-05-22T07:05:59.440Z,95836.97
2023-05-22T07:08:44.998Z,95822.81
2023-05-22T07:11:30.339Z,95822.41
2023-05-22T07:14:15.801Z,95816.53
2023-05-22T07:17:01.168Z,95819.53
2023-05-22T07:19:46.482Z,95825.56
2023-05-22T07:22:31.772Z,95827.88
2023-05-22T07:25:17.072Z,95838.47
2023-05-22T07:28:05.837Z,95828.44
2023-05-22T07:30:51.987Z,95827.00
2023-05-22T07:33:37.210Z,95821.69
2023-05-22T07:36:22.780Z,95823.34
2023-05-22T07:39:09.598Z,95826.84
2023-05-22T07:41:57.209Z,95816.44
2023-05-22T07:44:43.095Z,95815.97
2023-05-22T07:47:28.423Z,95810.19
2023-05-22T07:50:13.638Z,95807.59
2023-05-22T07:52:59.217Z,95810.88
2023-05-22T07:55:44.851Z,95810.59
2023-05-22T07:58:30.310Z,95817.38
2023-05-22T08:01:18.485Z,95814.28
2023-05-22T08:04:05.598Z,95812.97
2023-05-22T08:06:51.199Z,95810.06
2023-05-22T08:09:37.104Z,95812.78
2023-05-22T08:12:22.430Z,95811.22
2023-05-22T08:15:08.630Z,95809.09
2023-05-22T08:17:54.069Z,95810.72
2023-05-22T08:20:42.949Z,95808.38
2023-05-22T08:23:28.388Z,95810.22
2023-05-22T08:26:15.135Z,95811.59
2023-05-22T08:29:01.037Z,95801.72
2023-05-22T08:31:46.426Z,95803.41
2023-05-22T08:34:32.990Z,95807.72
2023-05-22T08:37:18.557Z,95802.91
2023-05-22T08:40:04.316Z,95793.28
2023-05-22T08:42:51.563Z,95808.84
2023-05-22T08:45:37.670Z,95789.50
2023-05-22T08:48:24.129Z,95793.84
2023-05-22T08:51:13.513Z,95795.75
2023-05-22T08:54:00.571Z,95797.59
2023-05-22T08:56:56.218Z,95790.63
2023-05-22T08:59:44.082Z,95793.38
2023-05-22T09:02:29.643Z,95796.91
2023-05-22T09:05:17.038Z,95785.91
2023-05-22T09:08:16.166Z,95789.13
2023-05-22T09:11:04.698Z,95793.69
2023-05-22T09:13:51.972Z,95796.44
2023-05-22T09:16:52.899Z,95791.34
2023-05-22T09:19:42.807Z,95794.56
2023-05-22T09:22:38.398Z,95793.00
2023-05-22T09:25:23.687Z,95784.94
2023-05-22T09:28:09.236Z,95785.72
2023-05-22T09:30:56.001Z,95785.47
2023-05-22T09:33:44.196Z,95771.22
2023-05-22T09:36:33.354Z,95775.25
2023-05-22T09:39:18.833Z,95768.25
2023-05-22T09:42:04.927Z,95775.31
2023-05-22T09:44:51.622Z,95774.47
2023-05-22T09:47:37.121Z,95762.88
2023-05-22T09:50:22.484Z,95771.50
2023-05-22T09:53:09.312Z,95764.25
2023-05-22T09:56:00.198Z,95762.63
2023-05-22T09:58:47.739Z,95765.59
2023-05-22T10:01:34.207Z,95766.66
2023-05-22T10:04:22.554Z,95760.47
2023-05-22T10:07:10.262Z,95758.88
2023-05-22T10:10:04.754Z,95762.38
2023-05-22T10:13:04.571Z,95763.44
2023-05-22T10:15:50.593Z,95756.44
2023-05-22T10:18:37.645Z,95756.97
2023-05-22T10:21:23.238Z,95751.84
2023-05-22T10:24:10.152Z,95741.06
2023-05-22T10:26:55.570Z,95741.81
2023-05-22T10:29:49.402Z,95738.00
2023-05-22T10:32:46.746Z,95749.28
2023-05-22T10:35:47.769Z,95748.19
2023-05-22T10:38:58.238Z,95735.81
2023-05-22T10:41:43.584Z,95741.13
2023-05-22T10:44:29.322Z,95729.25
2023-05-22T10:47:14.728Z,95727.06
2023-05-22T10:50:11.104Z,95720.88
2023-05-22T10:53:34.023Z,95721.91
2023-05-22T10:56:19.781Z,95718.06
2023-05-22T10:59:08.015Z,95718.81
2023-05-22T11:02:00.661Z,95711.97
2023-05-22T11:04:45.961Z,95710.63
2023-05-22T11:07:40.340Z,95712.22
2023-05-22T11:10:59.360Z,95715.25
2023-05-22T11:13:52.004Z,95710.13
2023-05-22T11:16:39.084Z,95699.84
2023-05-22T11:19:24.626Z,95704.69
2023-05-22T11:22:09.948Z,95699.81
2023-05-22T11:24:55.614Z,95694.72
2023-05-22T11:27:41.428Z,95703.03
2023-05-22T11:30:28.451Z,95689.31
2023-05-22T11:33:14.786Z,95689.56
2023-05-22T11:36:02.104Z,95689.56
2023-05-22T11:38:47.211Z,95685.78
2023-05-22T11:41:34.144Z,95689.00
2023-05-22T11:44:19.830Z,95693.25
2023-05-22T11:47:05.451Z,95691.78
2023-05-22T11:49:51.923Z,95695.25
2023-05-22T11:52:38.476Z,95695.94
2023-05-22T11:55:24.323Z,95699.41
2023-05-22T11:58:09.465Z,95697.72
2023-05-22T12:01:01.610Z,95693.00
2023-05-22T12:03:47.165Z,95691.53
2023-05-22T12:06:33.513Z,95696.88
2023-05-22T12:09:19.120Z,95686.69
2023-05-22T12:12:04.534Z,95692.28
2023-05-22T12:14:50.012Z,95692.47
2023-05-22T12:17:37.737Z,95688.53
2023-05-22T12:20:22.917Z,95686.28
2023-05-22T12:23:12.285Z,95685.91
2023-05-22T12:25:59.631Z,95684.84
2023-05-22T12:28:44.901Z,95681.09
2023-05-22T12:31:38.493Z,95675.22
2023-05-22T12:34:23.916Z,95676.28
2023-05-22T12:37:28.548Z,95668.09
2023-05-22T12:40:13.920Z,95672.22
2023-05-22T12:42:59.313Z,95669.00
2023-05-22T12:45:44.966Z,95676.75
2023-05-22T12:48:30.079Z,95676.09
2023-05-22T12:51:16.127Z,95670.69
2023-05-22T12:54:04.025Z,95676.97
2023-05-22T12:56:49.315Z,95680.00
2023-05-22T12:59:34.844Z,95675.38
2023-05-22T13:02:20.069Z,95680.78
2023-05-22T13:05:06.093Z,95679.19
2023-05-22T13:07:51.455Z,95678.06
2023-05-22T13:10:38.195Z,95677.84
2023-05-22T13:13:23.673Z,95679.28
2023-05-22T13:16:10.379Z,95676.00
2023-05-22T13:18:55.701Z,95664.69
2023-05-22T13:21:41.082Z,95667.44
2023-05-22T13:24:26.492Z,95666.25
2023-05-22T13:27:11.706Z,95672.97
2023-05-22T13:29:57.062Z,95669.50
2023-05-22T13:32:42.331Z,95664.66
2023-05-22T13:35:27.689Z,95654.16
2023-05-22T13:38:13.004Z,95663.53
2023-05-22T13:40:58.459Z,95659.22
2023-05-22T13:43:43.703Z,95665.84
2023-05-22T13:46:29.148Z,95654.88
2023-05-22T13:49:14.752Z,95655.06
2023-05-22T13:51:59.820Z,95657.47
2023-05-22T13:54:45.217Z,95638.81
2023-05-22T13:57:30.515Z,95645.22
2023-05-22T14:00:16.301Z,95649.63
2023-05-22T14:03:01.768Z,95638.31
2023-05-22T14:05:46.824Z,95647.41
2023-05-22T14:08:31.987Z,95646.34
2023-05-22T14:11:17.266Z,95630.91
2023-05-22T14:14:02.565Z,95639.91
2023-05-22T14:16:47.973Z,95639.47
2023-05-22T14:19:33.233Z,95634.69
2023-05-22T14:22:18.632Z,95633.66
2023-05-22T14:25:04.029Z,95640.06
2023-05-22T14:27:49.510Z,95626.41
2023-05-22T14:30:34.826Z,95628.91
2023-05-22T14:33:20.038Z,95639.28
2023-05-22T14:36:05.603Z,95628.44
2023-05-22T14:38:50.865Z,95623.09
2023-05-22T14:41:36.668Z,95621.31
2023-05-22T14:44:24.756Z,95628.75
2023-05-22T14:47:09.794Z,95624.81
2023-05-22T14:49:57.665Z,95619.66
2023-05-22T14:52:49.382Z,95621.47
2023-05-22T14:55:34.748Z,95629.16
2023-05-22T14:58:19.984Z,95623.81
2023-05-22T15:01:05.430Z,95622.75
2023-05-22T15:03:50.707Z,95623.06
2023-05-22T15:06:36.212Z,95624.19
2023-05-22T15:09:21.347Z,95619.16
2023-05-22T15:12:07.203Z,95617.19
2023-05-22T15:14:52.571Z,95616.47
2023-05-22T15:17:38.896Z,95606.47
2023-05-22T15:20:26.355Z,95601.75
2023-05-22T15:23:11.617Z,95607.72
2023-05-22T15:25:56.955Z,95602.09
2023-05-22T15:28:42.246Z,95599.59
2023-05-22T15:31:31.689Z,95595.31
2023-05-22T15:34:17.132Z,95596.13
2023-05-22T15:37:02.433Z,95594.78
2023-05-22T15:39:47.658Z,95602.44
2023-05-22T15:42:32.939Z,95595.16
2023-05-22T15:45:18.206Z,95596.50
2023-05-22T15:48:05.460Z,95602.66
2023-05-22T15:50:51.145Z,95593.91
2023-05-22T15:53:36.392Z,95591.00
2023-05-22T15:56:21.644Z,95595.44
2023-05-22T15:59:06.813Z,95603.69
2023-05-22T16:01:52.182Z,95596.13
2023-05-22T16:04:37.472Z,95596.16
2023-05-22T16:07:22.860Z,95598.00
2023-05-22T16:10:09.058Z,95588.03
2023-05-22T16:12:54.071Z,95587.28
2023-05-22T16:15:40.866Z,95596.13
2023-05-22T16:18:26.447Z,95600.69
2023-05-22T16:21:11.676Z,95606.56
2023-05-22T16:23:57.793Z,95604.81
2023-05-22T16:26:43.084Z,95604.88
2023-05-22T16:29:28.366Z,95603.06
2023-05-22T16:32:13.709Z,95601.47
2023-05-22T16:34:59.138Z,95606.97
2023-05-22T16:37:44.522Z,95610.31
2023-05-22T16:40:29.882Z,95615.75
2023-05-22T16:43:15.124Z,95613.41
2023-05-22T16:46:00.377Z,95611.03
2023-05-22T16:48:45.638Z,95620.59
2023-05-22T16:51:30.943Z,95621.78
2023-05-22T16:54:16.199Z,95625.88
2023-05-22T16:57:01.879Z,95622.16
2023-05-22T16:59:47.355Z,95627.88
2023-05-22T17:02:33.008Z,95629.25
2023-05-22T17:05:18.661Z,95641.63
2023-05-22T17:08:04.562Z,95633.53
2023-05-22T17:10:49.938Z,95635.91
2023-05-22T17:13:35.313Z,95640.44
2023-05-22T17:16:21.079Z,95635.59
2023-05-22T17:19:06.836Z,95635.59
2023-05-22T17:21:52.171Z,95632.94
2023-05-22T17:24:41.351Z,95634.88
2023-05-22T17:27:35.394Z,95638.41
2023-05-22T17:30:21.876Z,95633.09
2023-05-22T17:33:07.853Z,95634.75
2023-05-22T17:35:53.310Z,95639.09
2023-05-22T17:38:38.542Z,95641.84
2023-05-22T17:41:24.378Z,95635.97
2023-05-22T17:44:09.671Z,95643.78
2023-05-22T17:46:54.883Z,95647.28
2023-05-22T17:49:40.204Z,95638.72
2023-05-22T17:52:25.879Z,95643.31
2023-05-22T17:55:11.237Z,95644.38
2023-05-22T17:57:56.385Z,95643.03
2023-05-22T18:00:42.429Z,95647.38
2023-05-22T18:03:28.078Z,95637.41
2023-05-22T18:06:13.533Z,95632.03
2023-05-22T18:08:58.929Z,95638.22
2023-05-22T18:11:44.400Z,95640.88
2023-05-22T18:14:29.741Z,95637.63
2023-05-22T18:17:15.374Z,95629.81
2023-05-22T18:20:00.998Z,95638.06
2023-05-22T18:22:46.398Z,95641.81
2023-05-22T18:25:31.744Z,95644.75
2023-05-22T18:28:16.889Z,95641.19
2023-05-22T18:31:02.163Z,95637.66
2023-05-22T18:33:47.740Z,95640.50
2023-05-22T18:36:34.028Z,95643.94
2023-05-22T18:39:19.474Z,95641.94
2023-05-22T18:42:05.030Z,95648.56
2023-05-22T18:44:50.779Z,95653.06
2023-05-22T18:47:36.366Z,95654.56
2023-05-22T18:50:23.568Z,95655.00
2023-05-22T18:53:11.216Z,95657.06
2023-05-22T18:55:56.805Z,95662.78
2023-05-22T18:58:42.588Z,95658.91
2023-05-22T19:01:27.832Z,95657.13
2023-05-22T19:04:12.921Z,95654.28
2023-05-22T19:06:59.199Z,95656.28
2023-05-22T19:09:44.335Z,95648.16
2023-05-22T19:12:31.754Z,95648.84
2023-05-22T19:15:16.940Z,95661.28
2023-05-22T19:18:02.245Z,95666.50
2023-05-22T19:20:47.692Z,95673.78
2023-05-22T19:23:36.721Z,95665.06
2023-05-22T19:26:21.715Z,95661.59
2023-05-22T19:29:06.796Z,95674.31
2023-05-22T19:31:52.064Z,95665.38
2023-05-22T19:34:37.253Z,95665.41
2023-05-22T19:37:22.556Z,95658.56
2023-05-22T19:40:09.714Z,95668.81
2023-05-22T19:42:55.217Z,95668.66
2023-05-22T19:45:40.579Z,95670.91
2023-05-22T19:48:27.041Z,95674.97
2023-05-22T19:51:12.426Z,95677.22
2023-05-22T19:53:57.554Z,95678.63
2023-05-22T19:56:42.855Z,95669.19
2023-05-22T19:59:28.260Z,95679.66
2023-05-22T20:02:13.757Z,95677.59
2023-05-22T20:04:59.227Z,95673.13
2023-05-22T20:07:44.633Z,95669.78
2023-05-22T20:10:31.631Z,95670.16
2023-05-22T20:13:16.897Z,95670.72
2023-05-22T20:16:11.780Z,95670.53
2023-05-22T20:18:57.127Z,95669.88
2023-05-22T20:21:42.369Z,95672.06
2023-05-22T20:24:27.792Z,95666.50
2023-05-22T20:27:13.342Z,95679.66
2023-05-22T20:30:00.203Z,95670.78
2023-05-22T20:32:48.559Z,95670.09
2023-05-22T20:35:34.017Z,95672.28
2023-05-22T20:38:20.024Z,95669.97
2023-05-22T20:41:08.637Z,95666.38
2023-05-22T20:43:55.104Z,95662.78
2023-05-22T20:46:40.380Z,95667.41
2023-05-22T20:49:25.699Z,95666.69
2023-05-22T20:52:13.376Z,95668.66
2023-05-22T20:54:59.101Z,95665.66
2023-05-22T20:57:44.012Z,95667.38
2023-05-22T21:00:30.046Z,95665.03
2023-05-22T21:03:15.240Z,95665.94
2023-05-22T21:06:00.606Z,95662.56
2023-05-22T21:08:46.116Z,95664.31
2023-05-22T21:11:31.474Z,95667.84
2023-05-22T21:14:17.347Z,95669.56
2023-05-22T21:17:02.459Z,95678.44
2023-05-22T21:19:47.819Z,95669.75
2023-05-22T21:22:33.146Z,95676.75
2023-05-22T21:25:18.401Z,95673.38
2023-05-22T21:28:04.021Z,95676.06
2023-05-22T21:30:49.493Z,95676.53
2023-05-22T21:33:35.020Z,95676.38
2023-05-22T21:36:20.516Z,95671.75
2023-05-22T21:39:06.253Z,95680.38
2023-05-22T21:41:51.757Z,95677.16
2023-05-22T21:44:37.531Z,95686.81
2023-05-22T21:47:22.797Z,95677.88
2023-05-22T21:50:08.345Z,95678.19
2023-05-22T21:52:53.962Z,95676.53
2023-05-22T21:55:39.417Z,95677.00
2023-05-22T21:58:24.758Z,95676.84
2023-05-22T22:01:10.239Z,95678.09
2023-05-22T22:03:55.520Z,95669.78
2023-05-22T22:06:40.985Z,95679.19
2023-05-22T22:09:26.402Z,95669.03
2023-05-22T22:12:12.000Z,95673.97
2023-05-22T22:14:57.908Z,95663.44
2023-05-22T22:17:43.192Z,95663.84
2023-05-22T22:20:39.876Z,95655.72
2023-05-22T22:23:30.228Z,95659.44
2023-05-22T22:26:16.288Z,95659.03
2023-05-22T22:29:01.731Z,95659.50
2023-05-22T22:31:47.055Z,95667.44
2023-05-22T22:34:32.808Z,95661.16
2023-05-22T22:37:18.878Z,95661.63
2023-05-22T22:40:05.575Z,95653.06
2023-05-22T22:42:51.137Z,95655.13
2023-05-22T22:45:36.470Z,95641.69
2023-05-22T22:48:22.453Z,95646.84
2023-05-22T22:51:09.497Z,95640.94
2023-05-22T22:53:54.891Z,95641.81
2023-05-22T22:56:40.153Z,95642.28
2023-05-22T22:59:25.672Z,95643.13
2023-05-22T23:02:11.105Z,95644.16
2023-05-22T23:04:56.619Z,95635.81
2023-05-22T23:07:41.640Z,95629.31
2023-05-22T23:10:26.971Z,95629.31
2023-05-22T23:13:12.306Z,95623.06
2023-05-22T23:15:57.416Z,95627.56
2023-05-22T23:18:42.754Z,95626.13
2023-05-22T23:21:27.905Z,95623.31
2023-05-22T23:24:13.352Z,95623.75
2023-05-22T23:26:58.571Z,95613.56
2023-05-22T23:29:43.993Z,95615.00
2023-05-22T23:32:29.307Z,95618.09
2023-05-22T23:35:14.509Z,95613.84
2023-05-22T23:37:59.938Z,95616.31
2023-05-22T23:40:45.295Z,95609.22
2023-05-22T23:43:30.688Z,95606.78
2023-05-22T23:46:15.966Z,95613.31
2023-05-22T23:49:01.424Z,95608.88
2023-05-22T23:51:46.659Z,95612.75
2023-05-22T23:54:31.969Z,95608.50
2023-05-22T23:57:17.314Z,95612.97
